createdAt,value
2023-04-30T00:00:00.575Z,18.8
2023-04-30T00:01:00.573Z,18.8
2023-04-30T00:02:00.681Z,18.8
2023-04-30T00:03:00.652Z,18.8
2023-04-30T00:04:00.601Z,18.8
2023-04-30T00:05:00.580Z,18.9
2023-04-30T00:06:00.618Z,18.9
2023-04-30T00:07:00.535Z,18.9
2023-04-30T00:08:00.611Z,18.9
2023-04-30T00:09:00.585Z,18.9
2023-04-30T00:10:00.555Z,18.9
2023-04-30T00:11:00.556Z,18.9
2023-04-30T00:12:00.614Z,18.9
2023-04-30T00:13:00.587Z,18.9
2023-04-30T00:14:00.506Z,19.0
2023-04-30T00:15:00.581Z,18.9
2023-04-30T00:16:00.913Z,18.9
2023-04-30T00:17:00.517Z,18.9
2023-04-30T00:18:00.841Z,18.9
2023-04-30T00:19:00.516Z,18.8
2023-04-30T00:20:00.568Z,18.7
2023-04-30T00:21:00.557Z,18.6
2023-04-30T00:22:00.536Z,18.6
2023-04-30T00:23:00.572Z,18.5
2023-04-30T00:24:00.678Z,18.6
2023-04-30T00:25:00.560Z,18.5
2023-04-30T00:26:00.604Z,18.5
2023-04-30T00:27:00.535Z,18.5
2023-04-30T00:28:00.533Z,18.5
2023-04-30T00:29:00.561Z,18.5
2023-04-30T00:30:00.555Z,18.5
2023-04-30T00:31:00.556Z,18.4
2023-04-30T00:32:00.583Z,18.4
2023-04-30T00:33:00.583Z,18.4
2023-04-30T00:34:00.539Z,18.4
2023-04-30T00:35:00.709Z,18.4
2023-04-30T00:36:00.531Z,18.4
2023-04-30T00:37:00.600Z,18.3
2023-04-30T00:38:00.570Z,18.3
2023-04-30T00:39:00.550Z,18.3
2023-04-30T00:40:00.594Z,18.3
2023-04-30T00:41:00.616Z,18.3
2023-04-30T00:42:00.501Z,18.3
2023-04-30T00:43:00.597Z,18.3
2023-04-30T00:44:00.747Z,18.4
2023-04-30T00:45:00.577Z,18.4
2023-04-30T00:46:00.764Z,18.4
2023-04-30T00:47:00.524Z,18.4
2023-04-30T00:48:00.611Z,18.4
2023-04-30T00:49:00.555Z,18.4
2023-04-30T00:50:00.521Z,18.4
2023-04-30T00:51:01.846Z,18.4
2023-04-30T00:52:00.568Z,18.4
2023-04-30T00:53:00.534Z,18.4
2023-04-30T00:54:00.973Z,18.4
2023-04-30T00:55:00.586Z,18.4
2023-04-30T00:56:00.581Z,18.4
2023-04-30T00:57:01.670Z,18.3
2023-04-30T00:58:00.580Z,18.3
2023-04-30T00:59:00.535Z,18.2
2023-04-30T01:00:00.898Z,18.2
2023-04-30T01:01:01.769Z,18.2
2023-04-30T01:02:01.598Z,18.2
2023-04-30T01:03:00.966Z,18.2
2023-04-30T01:04:00.552Z,18.2
2023-04-30T01:05:01.203Z,18.2
2023-04-30T01:06:01.025Z,18.2
2023-04-30T01:07:00.617Z,18.2
2023-04-30T01:08:00.665Z,18.2
2023-04-30T01:14:06.221Z,18.3
2023-04-30T01:15:05.786Z,18.4
2023-04-30T01:16:10.468Z,18.4
2023-04-30T01:17:10.404Z,18.3
2023-04-30T01:18:01.622Z,18.3
2023-04-30T01:19:10.497Z,18.3
2023-04-30T01:20:00.722Z,18.3
2023-04-30T01:21:03.120Z,18.3
2023-04-30T01:22:02.475Z,18.2
2023-04-30T01:23:07.844Z,18.2
2023-04-30T01:24:00.509Z,18.2
2023-04-30T01:25:05.612Z,18.2
2023-04-30T01:26:10.397Z,18.2
2023-04-30T01:27:06.378Z,18.2
2023-04-30T01:28:01.956Z,18.1
2023-04-30T01:29:01.933Z,18.1
2023-04-30T01:30:00.947Z,18.1
2023-04-30T01:31:00.593Z,18.0
2023-04-30T01:32:00.939Z,17.9
2023-04-30T01:33:01.075Z,17.9
2023-04-30T01:34:00.545Z,17.9
2023-04-30T01:35:02.973Z,17.9
2023-04-30T01:36:10.456Z,17.8
2023-04-30T01:37:09.804Z,17.8
2023-04-30T01:38:00.505Z,17.8
2023-04-30T01:39:07.921Z,17.8
2023-04-30T01:40:03.877Z,17.8
2023-04-30T01:41:10.012Z,17.8
2023-04-30T01:42:05.533Z,17.7
2023-04-30T01:43:04.579Z,17.7
2023-04-30T01:44:00.497Z,17.8
2023-04-30T01:45:09.940Z,17.8
2023-04-30T01:46:10.461Z,17.8
2023-04-30T01:47:05.063Z,17.7
2023-04-30T01:48:01.625Z,17.7
2023-04-30T01:49:10.383Z,17.7
2023-04-30T01:50:03.825Z,17.7
2023-04-30T01:51:03.904Z,17.7
2023-04-30T01:52:10.419Z,17.7
2023-04-30T01:53:01.683Z,17.7
2023-04-30T01:54:04.922Z,17.7
2023-04-30T01:55:07.101Z,17.7
2023-04-30T01:56:01.814Z,17.7
2023-04-30T01:57:04.039Z,17.7
2023-04-30T01:58:02.386Z,17.6
2023-04-30T01:59:01.577Z,17.6
2023-04-30T02:00:00.790Z,17.5
2023-04-30T02:01:00.525Z,17.5
2023-04-30T02:02:01.097Z,17.5
2023-04-30T02:03:00.829Z,17.5
2023-04-30T02:04:00.732Z,17.5
2023-04-30T02:05:00.522Z,17.5
2023-04-30T02:06:00.548Z,17.5
2023-04-30T02:07:00.616Z,17.5
2023-04-30T02:08:00.556Z,17.5
2023-04-30T02:09:00.604Z,17.5
2023-04-30T02:10:00.584Z,17.5
2023-04-30T02:11:00.545Z,17.5
2023-04-30T02:12:00.532Z,17.5
2023-04-30T02:13:00.577Z,17.5
2023-04-30T02:14:00.702Z,17.5
2023-04-30T02:15:01.475Z,17.5
2023-04-30T02:16:00.568Z,17.5
2023-04-30T02:17:00.534Z,17.5
2023-04-30T02:18:00.616Z,17.4
2023-04-30T02:19:00.874Z,17.4
2023-04-30T02:20:00.592Z,17.4
2023-04-30T02:21:00.579Z,17.4
2023-04-30T02:22:00.526Z,17.4
2023-04-30T02:23:00.502Z,17.4
2023-04-30T02:24:00.560Z,17.4
2023-04-30T02:25:01.039Z,17.4
2023-04-30T02:26:00.528Z,17.4
2023-04-30T02:27:00.525Z,17.4
2023-04-30T02:28:00.540Z,17.4
2023-04-30T02:29:00.520Z,17.3
2023-04-30T02:30:00.569Z,17.3
2023-04-30T02:31:00.532Z,17.3
2023-04-30T02:32:00.609Z,17.2
2023-04-30T02:33:00.694Z,17.2
2023-04-30T02:34:00.519Z,17.2
2023-04-30T02:35:00.595Z,17.3
2023-04-30T02:36:00.597Z,17.2
2023-04-30T02:37:00.514Z,17.2
2023-04-30T02:38:00.579Z,17.2
2023-04-30T02:39:00.583Z,17.2
2023-04-30T02:40:00.615Z,17.2
2023-04-30T02:41:00.555Z,17.1
2023-04-30T02:42:00.566Z,17.1
2023-04-30T02:43:00.570Z,17.1
2023-04-30T02:44:00.525Z,17.1
2023-04-30T02:45:00.547Z,17.0
2023-04-30T02:46:00.627Z,17.0
2023-04-30T02:47:00.996Z,17.0
2023-04-30T02:48:00.549Z,17.0
2023-04-30T02:49:00.508Z,17.0
2023-04-30T02:50:00.569Z,17.0
2023-04-30T02:51:00.534Z,17.0
2023-04-30T02:52:00.565Z,17.0
2023-04-30T02:53:00.540Z,17.0
2023-04-30T02:54:00.563Z,17.0
2023-04-30T02:55:00.548Z,17.1
2023-04-30T02:56:00.578Z,17.1
2023-04-30T02:57:00.663Z,17.1
2023-04-30T02:58:00.729Z,17.1
2023-04-30T02:59:00.673Z,17.1
2023-04-30T03:00:00.589Z,17.1
2023-04-30T03:01:00.597Z,17.1
2023-04-30T03:02:00.546Z,17.1
2023-04-30T03:03:00.657Z,17.1
2023-04-30T03:04:00.569Z,17.1
2023-04-30T03:05:00.556Z,17.1
2023-04-30T03:06:00.584Z,17.1
2023-04-30T03:07:00.558Z,17.1
2023-04-30T03:08:00.503Z,17.1
2023-04-30T03:09:00.832Z,17.0
2023-04-30T03:10:00.517Z,17.0
2023-04-30T03:11:00.538Z,17.0
2023-04-30T03:12:00.562Z,17.0
2023-04-30T03:13:00.520Z,17.0
2023-04-30T03:14:00.581Z,17.0
2023-04-30T03:15:00.708Z,17.0
2023-04-30T03:16:01.398Z,17.0
2023-04-30T03:17:00.551Z,17.0
2023-04-30T03:18:00.555Z,16.9
2023-04-30T03:19:00.509Z,16.9
2023-04-30T03:20:00.634Z,16.9
2023-04-30T03:21:00.515Z,16.9
2023-04-30T03:22:00.591Z,16.9
2023-04-30T03:23:00.559Z,16.9
2023-04-30T03:24:00.523Z,16.9
2023-04-30T03:25:00.539Z,16.9
2023-04-30T03:26:00.532Z,16.9
2023-04-30T03:27:00.526Z,16.9
2023-04-30T03:28:00.507Z,16.8
2023-04-30T03:29:00.492Z,16.8
2023-04-30T03:30:00.579Z,16.8
2023-04-30T03:31:01.041Z,16.8
2023-04-30T03:32:00.614Z,16.8
2023-04-30T03:33:00.619Z,16.8
2023-04-30T03:34:00.587Z,16.8
2023-04-30T03:35:00.531Z,16.8
2023-04-30T03:36:00.516Z,16.8
2023-04-30T03:37:00.518Z,16.8
2023-04-30T03:38:01.149Z,16.8
2023-04-30T03:39:00.824Z,16.8
2023-04-30T03:40:00.563Z,16.8
2023-04-30T03:41:00.511Z,16.8
2023-04-30T03:42:00.674Z,16.8
2023-04-30T03:43:00.532Z,16.8
2023-04-30T03:44:00.534Z,16.8
2023-04-30T03:45:00.553Z,16.8
2023-04-30T03:46:00.587Z,16.8
2023-04-30T03:47:00.618Z,16.8
2023-04-30T03:48:00.673Z,16.8
2023-04-30T03:49:00.536Z,16.8
2023-04-30T03:50:00.535Z,16.8
2023-04-30T03:51:00.614Z,16.8
2023-04-30T03:52:00.591Z,16.8
2023-04-30T03:53:00.612Z,16.8
2023-04-30T03:54:00.532Z,16.8
2023-04-30T03:55:00.524Z,16.8
2023-04-30T03:56:00.981Z,16.8
2023-04-30T03:57:00.955Z,16.8
2023-04-30T03:58:00.574Z,16.8
2023-04-30T03:59:00.617Z,16.8
2023-04-30T04:00:00.736Z,16.8
2023-04-30T04:01:00.542Z,16.8
2023-04-30T04:02:00.581Z,16.8
2023-04-30T04:03:00.648Z,16.8
2023-04-30T04:04:00.836Z,16.8
2023-04-30T04:05:00.863Z,16.8
2023-04-30T04:06:00.584Z,16.8
2023-04-30T04:07:00.577Z,16.8
2023-04-30T04:08:00.544Z,16.8
2023-04-30T04:09:00.505Z,16.8
2023-04-30T04:10:00.592Z,16.8
2023-04-30T04:11:00.544Z,16.8
2023-04-30T04:12:00.543Z,16.8
2023-04-30T04:13:00.554Z,16.8
2023-04-30T04:14:00.557Z,16.8
2023-04-30T04:15:00.694Z,16.8
2023-04-30T04:16:00.557Z,16.8
2023-04-30T04:17:00.812Z,16.8
2023-04-30T04:18:00.614Z,16.8
2023-04-30T04:19:00.556Z,16.8
2023-04-30T04:20:00.557Z,16.8
2023-04-30T04:21:00.530Z,16.8
2023-04-30T04:22:00.541Z,16.8
2023-04-30T04:23:00.539Z,16.8
2023-04-30T04:24:00.535Z,16.8
2023-04-30T04:25:00.563Z,16.8
2023-04-30T04:26:00.577Z,16.8
2023-04-30T04:27:00.550Z,16.7
2023-04-30T04:28:00.577Z,16.7
2023-04-30T04:29:00.925Z,16.7
2023-04-30T04:30:01.333Z,16.6
2023-04-30T04:31:00.535Z,16.6
2023-04-30T04:32:00.645Z,16.6
2023-04-30T04:33:00.751Z,16.6
2023-04-30T04:34:01.669Z,16.6
2023-04-30T04:35:00.577Z,16.6
2023-04-30T04:36:00.579Z,16.6
2023-04-30T04:37:00.708Z,16.6
2023-04-30T04:38:00.660Z,16.6
2023-04-30T04:39:00.758Z,16.5
2023-04-30T04:40:00.535Z,16.5
2023-04-30T04:41:00.526Z,16.5
2023-04-30T04:42:00.518Z,16.5
2023-04-30T04:43:00.534Z,16.5
2023-04-30T04:44:00.737Z,16.5
2023-04-30T04:45:00.561Z,16.5
2023-04-30T04:46:00.557Z,16.6
2023-04-30T04:47:00.562Z,16.6
2023-04-30T04:48:00.709Z,16.6
2023-04-30T04:49:00.543Z,16.6
2023-04-30T04:50:00.528Z,16.6
2023-04-30T04:51:00.533Z,16.6
2023-04-30T04:52:00.833Z,16.6
2023-04-30T04:53:00.540Z,16.7
2023-04-30T04:54:00.652Z,16.7
2023-04-30T04:55:00.513Z,16.7
2023-04-30T04:56:00.506Z,16.7
2023-04-30T04:57:00.908Z,16.7
2023-04-30T04:58:00.602Z,16.8
2023-04-30T04:59:00.618Z,16.8
2023-04-30T05:00:00.569Z,16.8
2023-04-30T05:01:00.561Z,16.8
2023-04-30T05:02:00.607Z,16.8
2023-04-30T05:03:00.635Z,16.8
2023-04-30T05:04:00.678Z,16.8
2023-04-30T05:05:00.544Z,16.9
2023-04-30T05:06:00.540Z,16.9
2023-04-30T05:07:00.575Z,16.9
2023-04-30T05:08:00.531Z,16.9
2023-04-30T05:09:00.517Z,16.9
2023-04-30T05:10:00.580Z,16.9
2023-04-30T05:11:00.622Z,17.0
2023-04-30T05:12:00.519Z,17.0
2023-04-30T05:13:00.536Z,17.0
2023-04-30T05:14:00.535Z,17.0
2023-04-30T05:15:00.551Z,17.0
2023-04-30T05:16:00.690Z,17.1
2023-04-30T05:17:00.601Z,17.1
2023-04-30T05:18:00.585Z,17.1
2023-04-30T05:19:00.511Z,17.1
2023-04-30T05:20:00.574Z,17.1
2023-04-30T05:21:00.572Z,17.1
2023-04-30T05:22:00.579Z,17.1
2023-04-30T05:23:00.520Z,17.1
2023-04-30T05:24:00.586Z,17.1
2023-04-30T05:25:00.539Z,17.2
2023-04-30T05:26:00.521Z,17.2
2023-04-30T05:27:00.532Z,17.1
2023-04-30T05:28:00.598Z,17.1
2023-04-30T05:29:00.510Z,17.0
2023-04-30T05:30:00.719Z,17.0
2023-04-30T05:31:00.577Z,17.1
2023-04-30T05:32:00.933Z,17.2
2023-04-30T05:33:00.525Z,17.2
2023-04-30T05:34:00.544Z,17.2
2023-04-30T05:35:00.575Z,17.3
2023-04-30T05:36:00.545Z,17.4
2023-04-30T05:37:00.524Z,17.5
2023-04-30T05:38:01.152Z,17.6
2023-04-30T05:39:00.564Z,17.6
2023-04-30T05:40:00.543Z,17.7
2023-04-30T05:41:00.526Z,17.7
2023-04-30T05:42:00.536Z,17.8
2023-04-30T05:43:00.595Z,17.8
2023-04-30T05:44:00.518Z,17.9
2023-04-30T05:45:00.801Z,18.1
2023-04-30T05:46:00.585Z,18.2
2023-04-30T05:47:00.556Z,18.3
2023-04-30T05:48:00.592Z,18.4
2023-04-30T05:49:00.610Z,18.5
2023-04-30T05:50:00.516Z,18.6
2023-04-30T05:51:00.546Z,18.7
2023-04-30T05:52:00.523Z,18.8
2023-04-30T05:53:00.544Z,18.9
2023-04-30T05:54:00.939Z,19.0
2023-04-30T05:55:00.550Z,19.2
2023-04-30T05:56:00.546Z,19.4
2023-04-30T05:57:00.510Z,19.5
2023-04-30T05:58:00.627Z,19.6
2023-04-30T05:59:00.552Z,19.7
2023-04-30T06:00:00.560Z,19.8
2023-04-30T06:01:00.515Z,19.9
2023-04-30T06:02:00.552Z,20.0
2023-04-30T06:03:00.716Z,20.1
2023-04-30T06:04:00.535Z,20.3
2023-04-30T06:05:00.689Z,20.5
2023-04-30T06:06:00.578Z,20.6
2023-04-30T06:07:00.491Z,20.8
2023-04-30T06:08:00.505Z,21.0
2023-04-30T06:09:00.536Z,21.1
2023-04-30T06:10:00.551Z,21.2
2023-04-30T06:11:00.503Z,21.3
2023-04-30T06:12:00.630Z,21.3
2023-04-30T06:13:00.558Z,21.2
2023-04-30T06:14:00.582Z,21.2
2023-04-30T06:15:00.590Z,21.2
2023-04-30T06:16:00.780Z,21.1
2023-04-30T06:17:00.694Z,20.9
2023-04-30T06:18:00.560Z,20.9
2023-04-30T06:19:00.547Z,20.9
2023-04-30T06:20:00.542Z,21.0
2023-04-30T06:21:00.540Z,21.0
2023-04-30T06:22:00.528Z,21.1
2023-04-30T06:23:00.536Z,21.1
2023-04-30T06:24:00.631Z,21.1
2023-04-30T06:25:00.645Z,21.2
2023-04-30T06:26:00.543Z,21.2
2023-04-30T06:27:00.639Z,21.2
2023-04-30T06:28:00.575Z,21.3
2023-04-30T06:29:00.635Z,21.4
2023-04-30T06:30:00.580Z,21.5
2023-04-30T06:31:00.655Z,21.6
2023-04-30T06:32:00.534Z,21.8
2023-04-30T06:33:00.627Z,22.0
2023-04-30T06:34:00.560Z,22.2
2023-04-30T06:35:00.527Z,22.5
2023-04-30T06:36:00.517Z,22.7
2023-04-30T06:37:00.573Z,22.8
2023-04-30T06:38:00.685Z,22.9
2023-04-30T06:39:00.521Z,22.9
2023-04-30T06:40:00.836Z,22.9
2023-04-30T06:41:00.556Z,22.8
2023-04-30T06:42:00.502Z,22.8
2023-04-30T06:43:00.584Z,22.7
2023-04-30T06:44:00.533Z,22.7
2023-04-30T06:45:00.974Z,22.8
2023-04-30T06:46:00.511Z,22.9
2023-04-30T06:47:00.502Z,23.0
2023-04-30T06:48:00.660Z,23.1
2023-04-30T06:49:00.744Z,23.2
2023-04-30T06:50:00.997Z,23.2
2023-04-30T06:51:00.535Z,23.2
2023-04-30T06:52:00.530Z,23.2
2023-04-30T06:53:00.549Z,23.2
2023-04-30T06:54:00.487Z,23.0
2023-04-30T06:55:01.017Z,23.2
2023-04-30T06:56:00.955Z,23.1
2023-04-30T06:57:00.528Z,23.3
2023-04-30T06:58:00.515Z,23.5
2023-04-30T06:59:00.565Z,23.8
2023-04-30T07:00:00.576Z,24.0
2023-04-30T07:01:00.712Z,24.2
2023-04-30T07:02:00.715Z,24.5
2023-04-30T07:03:00.584Z,24.8
2023-04-30T07:04:00.837Z,25.1
2023-04-30T07:05:00.621Z,25.6
2023-04-30T07:06:00.713Z,26.0
2023-04-30T07:07:00.546Z,26.1
2023-04-30T07:08:01.014Z,26.3
2023-04-30T07:09:01.083Z,26.5
2023-04-30T07:10:00.615Z,26.6
2023-04-30T07:11:00.762Z,26.8
2023-04-30T07:12:00.537Z,26.9
2023-04-30T07:13:00.504Z,26.8
2023-04-30T07:14:00.520Z,26.8
2023-04-30T07:15:00.528Z,27.1
2023-04-30T07:16:00.586Z,27.4
2023-04-30T07:17:00.546Z,27.5
2023-04-30T07:18:00.538Z,27.7
2023-04-30T07:19:00.548Z,27.9
2023-04-30T07:20:00.534Z,28.2
2023-04-30T07:21:00.509Z,28.6
2023-04-30T07:22:00.736Z,28.8
2023-04-30T07:23:00.536Z,29.0
2023-04-30T07:24:00.564Z,29.1
2023-04-30T07:25:00.658Z,29.4
2023-04-30T07:26:00.515Z,29.7
2023-04-30T07:27:00.535Z,29.6
2023-04-30T07:28:00.512Z,29.8
2023-04-30T07:29:00.620Z,29.8
2023-04-30T07:30:00.546Z,30.0
2023-04-30T07:31:00.554Z,30.1
2023-04-30T07:32:00.608Z,30.2
2023-04-30T07:33:00.740Z,30.4
2023-04-30T07:34:00.544Z,30.7
2023-04-30T07:35:00.518Z,31.0
2023-04-30T07:36:00.544Z,30.8
2023-04-30T07:37:00.552Z,30.9
2023-04-30T07:38:00.524Z,31.1
2023-04-30T07:39:00.508Z,31.2
2023-04-30T07:40:00.573Z,31.2
2023-04-30T07:41:00.580Z,31.1
2023-04-30T07:42:00.526Z,31.0
2023-04-30T07:43:00.566Z,31.0
2023-04-30T07:44:00.588Z,31.1
2023-04-30T07:45:00.546Z,31.3
2023-04-30T07:46:00.913Z,31.3
2023-04-30T07:47:00.512Z,31.4
2023-04-30T07:48:00.647Z,31.5
2023-04-30T07:49:00.575Z,31.7
2023-04-30T07:50:00.636Z,31.7
2023-04-30T07:51:00.539Z,31.9
2023-04-30T07:52:00.542Z,32.0
2023-04-30T07:53:00.910Z,32.3
2023-04-30T07:54:00.558Z,32.4
2023-04-30T07:55:00.662Z,32.7
2023-04-30T07:56:00.570Z,32.7
2023-04-30T07:57:00.566Z,32.9
2023-04-30T07:58:00.540Z,33.1
2023-04-30T07:59:00.585Z,33.0
2023-04-30T08:00:00.621Z,33.0
2023-04-30T08:01:00.540Z,33.0
2023-04-30T08:02:00.583Z,33.0
2023-04-30T08:03:00.872Z,33.0
2023-04-30T08:04:00.772Z,33.2
2023-04-30T08:05:00.507Z,33.6
2023-04-30T08:06:00.680Z,33.8
2023-04-30T08:07:00.540Z,34.1
2023-04-30T08:08:00.694Z,34.3
2023-04-30T08:09:00.682Z,34.2
2023-04-30T08:10:00.540Z,34.1
2023-04-30T08:11:00.536Z,33.9
2023-04-30T08:12:00.524Z,33.5
2023-04-30T08:13:00.500Z,33.2
2023-04-30T08:14:00.515Z,32.7
2023-04-30T08:15:01.536Z,32.8
2023-04-30T08:16:00.576Z,32.7
2023-04-30T08:17:00.678Z,32.7
2023-04-30T08:18:01.427Z,32.6
2023-04-30T08:19:00.577Z,32.4
2023-04-30T08:20:00.868Z,32.0
2023-04-30T08:21:00.592Z,31.7
2023-04-30T08:22:00.557Z,31.5
2023-04-30T08:23:00.544Z,31.5
2023-04-30T08:24:00.657Z,31.5
2023-04-30T08:25:00.566Z,31.6
2023-04-30T08:26:00.620Z,31.4
2023-04-30T08:27:01.468Z,31.5
2023-04-30T08:28:00.704Z,31.5
2023-04-30T08:29:00.528Z,31.5
2023-04-30T08:30:00.600Z,31.5
2023-04-30T08:31:00.577Z,31.3
2023-04-30T08:32:02.093Z,31.2
2023-04-30T08:33:00.583Z,31.2
2023-04-30T08:34:00.537Z,31.1
2023-04-30T08:35:01.140Z,31.5
2023-04-30T08:36:00.546Z,31.6
2023-04-30T08:37:00.541Z,31.5
2023-04-30T08:38:00.565Z,31.8
2023-04-30T08:39:00.595Z,31.7
2023-04-30T08:40:00.596Z,31.6
2023-04-30T08:41:01.557Z,31.7
2023-04-30T08:42:01.232Z,31.6
2023-04-30T08:43:04.644Z,31.5
2023-04-30T08:44:01.506Z,31.6
2023-04-30T08:45:01.700Z,31.8
2023-04-30T08:46:00.844Z,31.7
2023-04-30T08:47:00.598Z,31.5
2023-04-30T08:48:00.905Z,31.3
2023-04-30T08:49:00.649Z,30.9
2023-04-30T08:50:00.606Z,30.8
2023-04-30T08:51:01.118Z,30.6
2023-04-30T08:52:00.557Z,30.5
2023-04-30T08:53:00.589Z,30.1
2023-04-30T08:54:00.613Z,30.0
2023-04-30T08:55:00.810Z,30.1
2023-04-30T08:56:00.910Z,29.8
2023-04-30T08:57:00.625Z,29.9
2023-04-30T08:58:00.519Z,29.8
2023-04-30T08:59:00.569Z,29.9
2023-04-30T09:00:00.537Z,29.7
2023-04-30T09:01:01.896Z,29.5
2023-04-30T09:02:00.577Z,29.3
2023-04-30T09:03:00.675Z,29.3
2023-04-30T09:04:02.471Z,29.4
2023-04-30T09:05:00.630Z,29.6
2023-04-30T09:06:00.610Z,29.7
2023-04-30T09:07:01.701Z,29.8
2023-04-30T09:08:04.130Z,29.7
2023-04-30T09:09:10.392Z,29.5
2023-04-30T09:10:00.545Z,29.5
2023-04-30T09:11:00.511Z,29.5
2023-04-30T09:12:10.427Z,29.6
2023-04-30T09:13:02.521Z,29.6
2023-04-30T09:14:00.923Z,29.4
2023-04-30T09:15:01.826Z,29.7
2023-04-30T09:16:00.544Z,29.7
2023-04-30T09:17:00.542Z,29.8
2023-04-30T09:18:08.824Z,29.9
2023-04-30T09:19:00.608Z,29.7
2023-04-30T09:20:08.752Z,29.9
2023-04-30T09:21:00.921Z,29.9
2023-04-30T09:22:10.415Z,30.0
2023-04-30T09:23:08.831Z,30.0
2023-04-30T09:24:02.278Z,30.0
2023-04-30T09:25:00.523Z,30.2
2023-04-30T09:26:00.487Z,30.0
2023-04-30T09:27:10.409Z,29.6
2023-04-30T09:28:08.816Z,29.1
2023-04-30T09:29:00.743Z,29.0
2023-04-30T09:30:00.578Z,29.0
2023-04-30T09:31:00.555Z,28.6
2023-04-30T09:32:07.208Z,28.4
2023-04-30T09:33:00.693Z,28.4
2023-04-30T09:34:00.552Z,28.3
2023-04-30T09:35:00.637Z,28.2
2023-04-30T09:36:07.559Z,28.4
2023-04-30T09:37:00.971Z,28.5
2023-04-30T09:38:00.998Z,28.4
2023-04-30T09:39:10.864Z,28.2
2023-04-30T09:40:00.598Z,28.2
2023-04-30T09:41:00.815Z,28.4
2023-04-30T09:42:08.599Z,28.1
2023-04-30T09:43:00.600Z,28.2
2023-04-30T09:44:00.628Z,28.1
2023-04-30T09:45:00.532Z,28.5
2023-04-30T09:46:00.738Z,28.6
2023-04-30T09:47:00.666Z,28.6
2023-04-30T09:48:15.771Z,28.6
2023-04-30T09:49:03.000Z,28.7
2023-04-30T09:50:00.721Z,28.8
2023-04-30T09:51:02.286Z,28.8
2023-04-30T09:52:00.546Z,28.9
2023-04-30T09:53:08.604Z,28.9
2023-04-30T09:54:01.920Z,29.1
2023-04-30T09:55:00.728Z,29.5
2023-04-30T09:56:01.753Z,29.5
2023-04-30T09:57:01.175Z,29.6
2023-04-30T09:58:04.091Z,29.7
2023-04-30T09:59:03.339Z,29.8
2023-04-30T10:00:01.193Z,29.8
2023-04-30T10:01:02.195Z,29.9
2023-04-30T10:02:01.739Z,30.1
2023-04-30T10:03:04.982Z,30.4
2023-04-30T10:04:00.611Z,30.4
2023-04-30T10:05:00.766Z,30.5
2023-04-30T10:06:00.701Z,30.5
2023-04-30T10:07:02.870Z,30.3
2023-04-30T10:08:00.601Z,29.9
2023-04-30T10:09:01.523Z,29.4
2023-04-30T10:10:01.541Z,29.1
2023-04-30T10:11:02.355Z,28.6
2023-04-30T10:12:02.142Z,28.5
2023-04-30T10:13:03.067Z,27.8
2023-04-30T10:14:02.724Z,26.8
2023-04-30T10:15:08.798Z,27.4
2023-04-30T10:16:06.485Z,27.4
2023-04-30T10:17:04.700Z,27.7
2023-04-30T10:18:01.944Z,28.2
2023-04-30T10:19:05.822Z,28.4
2023-04-30T10:20:03.172Z,28.4
2023-04-30T10:21:02.398Z,28.4
2023-04-30T10:22:00.831Z,28.4
2023-04-30T10:23:00.680Z,28.2
2023-04-30T10:24:00.622Z,28.0
2023-04-30T10:25:01.324Z,28.4
2023-04-30T10:26:01.020Z,28.2
2023-04-30T10:27:00.583Z,28.1
2023-04-30T10:28:02.567Z,28.1
2023-04-30T10:29:01.436Z,27.8
2023-04-30T10:30:01.458Z,27.9
2023-04-30T10:31:00.786Z,28.3
2023-04-30T10:32:00.723Z,28.8
2023-04-30T10:33:10.503Z,29.1
2023-04-30T10:34:10.410Z,29.2
2023-04-30T10:35:10.419Z,29.5
2023-04-30T10:36:02.057Z,29.4
2023-04-30T10:37:05.452Z,29.5
2023-04-30T10:38:05.937Z,29.3
2023-04-30T10:39:01.007Z,29.4
2023-04-30T10:40:00.639Z,29.6
2023-04-30T10:41:01.002Z,29.8
2023-04-30T10:42:01.578Z,30.0
2023-04-30T10:43:00.566Z,30.1
2023-04-30T10:44:02.173Z,30.1
2023-04-30T10:45:02.124Z,30.5
2023-04-30T10:46:01.085Z,30.6
2023-04-30T10:47:00.919Z,30.4
2023-04-30T10:48:01.411Z,30.5
2023-04-30T10:49:00.566Z,30.5
2023-04-30T10:50:02.493Z,30.6
2023-04-30T10:51:00.949Z,30.7
2023-04-30T10:52:01.798Z,30.9
2023-04-30T10:53:01.302Z,31.0
2023-04-30T10:54:00.614Z,31.2
2023-04-30T10:55:03.735Z,31.6
2023-04-30T10:56:02.110Z,31.8
2023-04-30T10:57:08.533Z,31.9
2023-04-30T10:58:00.578Z,32.0
2023-04-30T10:59:00.922Z,32.1
2023-04-30T11:00:07.878Z,32.2
2023-04-30T11:01:10.459Z,32.1
2023-04-30T11:02:00.945Z,32.1
2023-04-30T11:03:03.810Z,32.0
2023-04-30T11:04:08.585Z,31.7
2023-04-30T11:05:10.517Z,31.8
2023-04-30T11:06:06.894Z,31.7
2023-04-30T11:07:06.502Z,31.4
2023-04-30T11:08:00.756Z,31.5
2023-04-30T11:09:02.931Z,31.6
2023-04-30T11:10:00.911Z,31.3
2023-04-30T11:11:00.541Z,31.3
2023-04-30T11:12:01.604Z,31.2
2023-04-30T11:13:04.670Z,31.2
2023-04-30T11:14:00.544Z,31.1
2023-04-30T11:15:06.569Z,31.5
2023-04-30T11:16:01.526Z,31.3
2023-04-30T11:17:00.572Z,31.3
2023-04-30T11:18:00.682Z,31.3
2023-04-30T11:19:11.690Z,31.0
2023-04-30T11:20:00.598Z,30.8
2023-04-30T11:21:00.873Z,30.6
2023-04-30T11:22:03.840Z,30.4
2023-04-30T11:23:10.400Z,30.1
2023-04-30T11:24:02.300Z,30.0
2023-04-30T11:25:03.376Z,30.2
2023-04-30T11:26:00.571Z,30.0
2023-04-30T11:27:02.120Z,29.9
2023-04-30T11:28:01.008Z,30.0
2023-04-30T11:29:01.347Z,30.1
2023-04-30T11:30:01.240Z,30.1
2023-04-30T11:31:00.676Z,30.4
2023-04-30T11:32:00.633Z,30.6
2023-04-30T11:33:00.644Z,30.7
2023-04-30T11:34:00.631Z,31.0
2023-04-30T11:35:00.904Z,31.3
2023-04-30T11:36:00.983Z,31.4
2023-04-30T11:37:02.149Z,31.3
2023-04-30T11:38:00.707Z,31.2
2023-04-30T11:39:00.639Z,31.2
2023-04-30T11:40:02.414Z,31.2
2023-04-30T11:41:01.241Z,31.0
2023-04-30T11:42:01.030Z,31.0
2023-04-30T11:43:00.565Z,31.0
2023-04-30T11:44:00.576Z,31.1
2023-04-30T11:45:01.941Z,31.3
2023-04-30T11:46:10.464Z,31.4
2023-04-30T11:47:00.738Z,31.5
2023-04-30T11:48:00.588Z,31.7
2023-04-30T11:49:00.769Z,31.6
2023-04-30T11:50:00.544Z,31.7
2023-04-30T11:51:02.244Z,31.6
2023-04-30T11:52:00.555Z,31.5
2023-04-30T11:53:00.520Z,31.7
2023-04-30T11:54:00.589Z,31.7
2023-04-30T11:55:03.982Z,32.1
2023-04-30T11:56:02.196Z,32.4
2023-04-30T11:57:00.540Z,32.6
2023-04-30T11:58:00.534Z,32.7
2023-04-30T11:59:00.521Z,32.8
2023-04-30T12:00:06.699Z,33.0
2023-04-30T12:01:00.733Z,32.8
2023-04-30T12:02:00.613Z,33.0
2023-04-30T12:03:01.006Z,33.1
2023-04-30T12:04:00.676Z,33.2
2023-04-30T12:05:01.133Z,33.3
2023-04-30T12:06:00.721Z,33.3
2023-04-30T12:07:00.666Z,33.3
2023-04-30T12:08:01.243Z,33.3
2023-04-30T12:09:01.829Z,33.5
2023-04-30T12:10:00.601Z,33.7
2023-04-30T12:11:00.567Z,33.8
2023-04-30T12:12:00.551Z,33.8
2023-04-30T12:13:00.911Z,34.1
2023-04-30T12:14:02.153Z,33.9
2023-04-30T12:15:09.368Z,34.3
2023-04-30T12:16:00.576Z,34.4
2023-04-30T12:17:00.658Z,34.2
2023-04-30T12:18:10.236Z,33.8
2023-04-30T12:19:00.593Z,33.7
2023-04-30T12:20:00.627Z,33.5
2023-04-30T12:21:00.590Z,33.6
2023-04-30T12:22:00.597Z,33.8
2023-04-30T12:23:00.550Z,33.1
2023-04-30T12:24:02.873Z,32.4
2023-04-30T12:25:04.497Z,33.1
2023-04-30T12:26:00.609Z,33.4
2023-04-30T12:27:00.614Z,33.3
2023-04-30T12:28:00.638Z,33.0
2023-04-30T12:29:02.488Z,32.8
2023-04-30T12:30:01.818Z,32.8
2023-04-30T12:31:00.624Z,32.2
2023-04-30T12:32:00.721Z,32.0
2023-04-30T12:33:00.766Z,30.7
2023-04-30T12:34:08.920Z,30.3
2023-04-30T12:35:00.642Z,30.6
2023-04-30T12:36:00.709Z,30.8
2023-04-30T12:37:00.841Z,30.9
2023-04-30T12:38:01.847Z,30.9
2023-04-30T12:39:01.636Z,31.2
2023-04-30T12:40:00.662Z,30.8
2023-04-30T12:41:03.667Z,31.0
2023-04-30T12:42:00.611Z,31.1
2023-04-30T12:43:01.584Z,31.1
2023-04-30T12:44:10.437Z,31.3
2023-04-30T12:45:00.742Z,31.5
2023-04-30T12:46:00.681Z,31.7
2023-04-30T12:47:05.818Z,32.1
2023-04-30T12:48:00.573Z,32.0
2023-04-30T12:49:00.575Z,32.1
2023-04-30T12:50:00.683Z,32.3
2023-04-30T12:51:01.345Z,32.4
2023-04-30T12:52:02.280Z,32.7
2023-04-30T12:53:01.469Z,33.0
2023-04-30T12:54:00.757Z,33.2
2023-04-30T12:55:10.429Z,33.3
2023-04-30T12:56:07.939Z,33.3
2023-04-30T12:57:02.589Z,33.2
2023-04-30T12:58:08.869Z,32.9
2023-04-30T12:59:00.597Z,32.8
2023-04-30T13:00:00.556Z,32.9
2023-04-30T13:01:02.816Z,32.7
2023-04-30T13:02:10.414Z,32.6
2023-04-30T13:03:00.606Z,32.2
2023-04-30T13:04:00.623Z,32.4
2023-04-30T13:05:00.523Z,32.7
2023-04-30T13:06:00.541Z,32.9
2023-04-30T13:07:00.680Z,32.9
2023-04-30T13:08:01.014Z,32.9
2023-04-30T13:09:00.555Z,32.8
2023-04-30T13:10:00.541Z,32.4
2023-04-30T13:11:00.531Z,32.6
2023-04-30T13:12:00.599Z,32.5
2023-04-30T13:13:00.536Z,32.6
2023-04-30T13:14:00.541Z,32.9
2023-04-30T13:15:00.544Z,33.1
2023-04-30T13:16:00.615Z,33.3
2023-04-30T13:17:00.586Z,33.4
2023-04-30T13:18:00.574Z,33.6
2023-04-30T13:19:00.520Z,33.6
2023-04-30T13:20:00.554Z,33.5
2023-04-30T13:21:00.544Z,33.7
2023-04-30T13:22:00.554Z,33.6
2023-04-30T13:23:00.693Z,33.8